EDDF

Frankfurt am Main International Airport

Code ICAO EDDF
Code IATA FRA
Nom Frankfurt am Main International Airport
Emplacement Frankfurt-am-Main, Hesse, DE
Élévation 364 pieds / 110.9 mètres
Latitude 50.02640152
Longitude 8.54312992
METAR EDDF 240020Z 17007KT 9999 FEW030 BKN035 14/10 Q1018 NOSIG
Informations extras Afficher cartes et CFS
Afficher NOTAMS
Piste Longueur Largeur Surface Élévation
07C 13123 ft 197 ft ASP 329 ft
07L 9186 ft 148 ft CON 305 ft
07R 13123 ft 148 ft CON 328 ft
18 13123 ft 148 ft CON 326 ft
25C 13123 ft 197 ft ASP 364 ft
25R 9186 ft 148 ft CON 353 ft
25L 13123 ft 148 ft CON 362 ft
36 13123 ft 148 ft CON 316 ft